createdAt,value
2022-11-15T00:01:25.742Z,51.92
2022-11-15T00:03:54.256Z,52.13
2022-11-15T00:06:22.523Z,52.07
2022-11-15T00:08:50.886Z,52.04
2022-11-15T00:11:19.161Z,52.10
2022-11-15T00:13:48.843Z,52.26
2022-11-15T00:16:17.161Z,52.04
2022-11-15T00:18:50.329Z,52.09
2022-11-15T00:21:19.840Z,52.02
2022-11-15T00:23:48.192Z,51.92
2022-11-15T00:26:17.572Z,52.14
2022-11-15T00:28:46.232Z,52.02
2022-11-15T00:31:16.707Z,52.06
2022-11-15T00:33:46.750Z,52.21
2022-11-15T00:36:15.308Z,52.15
2022-11-15T00:38:43.627Z,52.18
2022-11-15T00:41:11.995Z,52.31
2022-11-15T00:43:41.194Z,52.17
2022-11-15T00:46:10.712Z,52.09
2022-11-15T00:48:40.517Z,52.26
2022-11-15T00:51:08.847Z,52.30
2022-11-15T00:53:37.096Z,52.21
2022-11-15T00:56:05.716Z,52.25
2022-11-15T00:58:34.250Z,52.16
2022-11-15T01:01:09.743Z,52.24
2022-11-15T01:03:40.185Z,52.29
2022-11-15T01:06:09.636Z,52.31
2022-11-15T01:08:38.380Z,52.17
2022-11-15T01:11:10.159Z,52.34
2022-11-15T01:13:39.752Z,52.46
2022-11-15T01:16:10.993Z,52.34
2022-11-15T01:18:40.926Z,52.43
2022-11-15T01:21:11.495Z,52.43
2022-11-15T01:23:40.613Z,52.21
2022-11-15T01:26:13.120Z,52.48
2022-11-15T01:28:43.782Z,52.40
2022-11-15T01:31:16.894Z,52.43
2022-11-15T01:33:47.113Z,52.39
2022-11-15T01:36:19.945Z,52.59
2022-11-15T01:38:48.240Z,52.49
2022-11-15T01:41:22.715Z,52.40
2022-11-15T01:43:56.419Z,52.70
2022-11-15T01:46:32.845Z,52.43
2022-11-15T01:49:07.393Z,52.55
2022-11-15T01:51:36.048Z,52.45
2022-11-15T01:54:09.908Z,52.67
2022-11-15T01:56:44.729Z,52.76
2022-11-15T01:59:13.776Z,52.35
2022-11-15T02:01:42.776Z,52.65
2022-11-15T02:04:16.274Z,52.73
2022-11-15T02:06:45.666Z,52.73
2022-11-15T02:09:15.224Z,52.75
2022-11-15T02:11:44.845Z,52.73
2022-11-15T02:14:15.524Z,52.69
2022-11-15T02:16:53.892Z,52.58
2022-11-15T02:19:48.172Z,52.84
2022-11-15T02:22:29.850Z,52.92
2022-11-15T02:25:20.579Z,52.85
2022-11-15T02:28:33.359Z,52.89
2022-11-15T02:31:09.999Z,52.72
2022-11-15T02:33:48.803Z,52.81
2022-11-15T02:36:29.110Z,52.81
2022-11-15T02:39:05.734Z,53.18
2022-11-15T02:41:44.297Z,52.91
2022-11-15T02:44:18.886Z,52.90
2022-11-15T02:47:11.031Z,52.98
2022-11-15T02:49:41.859Z,52.91
2022-11-15T02:52:10.187Z,52.90
2022-11-15T02:54:38.631Z,52.73
2022-11-15T02:57:14.666Z,52.95
2022-11-15T03:00:08.705Z,52.61
2022-11-15T03:02:59.557Z,52.58
2022-11-15T03:05:36.527Z,52.76
2022-11-15T03:08:12.965Z,52.67
2022-11-15T03:10:51.172Z,52.89
2022-11-15T03:13:28.383Z,52.68
2022-11-15T03:16:05.627Z,52.83
2022-11-15T03:18:39.753Z,52.90
2022-11-15T03:21:11.148Z,52.71
2022-11-15T03:23:41.239Z,52.87
2022-11-15T03:26:14.704Z,52.60
2022-11-15T03:28:50.962Z,52.54
2022-11-15T03:31:38.988Z,52.75
2022-11-15T03:34:13.555Z,52.77
2022-11-15T03:36:42.060Z,52.89
2022-11-15T03:39:13.221Z,52.61
2022-11-15T03:41:51.848Z,52.87
2022-11-15T03:44:36.432Z,52.87
2022-11-15T03:47:15.561Z,52.84
2022-11-15T03:49:49.084Z,52.71
2022-11-15T03:52:20.717Z,52.91
2022-11-15T03:54:55.929Z,52.94
2022-11-15T03:57:24.628Z,52.56
2022-11-15T03:59:52.941Z,52.58
2022-11-15T04:02:21.320Z,52.85
2022-11-15T04:04:50.899Z,52.62
2022-11-15T04:07:19.271Z,52.55
2022-11-15T04:10:06.523Z,52.60
2022-11-15T04:12:37.567Z,52.75
2022-11-15T04:15:09.035Z,52.80
2022-11-15T04:17:40.516Z,53.01
2022-11-15T04:20:31.499Z,52.73
2022-11-15T04:23:19.365Z,52.83
2022-11-15T04:25:49.742Z,52.77
2022-11-15T04:28:18.045Z,52.77
2022-11-15T04:30:46.325Z,52.92
2022-11-15T04:33:14.736Z,52.55
2022-11-15T04:36:05.066Z,52.81
2022-11-15T04:38:32.447Z,52.88
2022-11-15T04:41:00.731Z,52.90
2022-11-15T04:43:29.673Z,53.05
2022-11-15T04:45:58.259Z,52.95
2022-11-15T04:48:26.488Z,52.68
2022-11-15T04:50:56.110Z,52.95
2022-11-15T04:53:24.426Z,52.80
2022-11-15T04:55:52.611Z,52.71
2022-11-15T04:58:20.859Z,52.86
2022-11-15T05:00:49.165Z,53.11
2022-11-15T05:03:35.381Z,52.69
2022-11-15T05:06:05.427Z,52.75
2022-11-15T05:08:33.754Z,52.85
2022-11-15T05:11:01.990Z,53.02
2022-11-15T05:13:30.541Z,53.09
2022-11-15T05:15:59.096Z,52.85
2022-11-15T05:18:27.363Z,52.96
2022-11-15T05:20:55.580Z,53.15
2022-11-15T05:23:25.238Z,52.85
2022-11-15T05:25:53.458Z,52.90
2022-11-15T05:28:21.719Z,52.92
2022-11-15T05:30:49.940Z,53.05
2022-11-15T05:33:18.255Z,52.93
2022-11-15T05:35:53.269Z,52.95
2022-11-15T05:38:21.672Z,53.23
2022-11-15T05:40:51.409Z,53.35
2022-11-15T05:43:19.854Z,53.00
2022-11-15T05:45:48.241Z,52.89
2022-11-15T05:48:17.085Z,52.96
2022-11-15T05:50:48.578Z,53.27
2022-11-15T05:53:21.897Z,53.09
2022-11-15T05:55:51.597Z,53.21
2022-11-15T05:58:20.575Z,53.31
2022-11-15T06:00:49.041Z,53.05
2022-11-15T06:03:17.277Z,53.06
2022-11-15T06:05:45.547Z,53.17
2022-11-15T06:08:13.894Z,52.97
2022-11-15T06:10:42.097Z,53.40
2022-11-15T06:13:11.889Z,53.18
2022-11-15T06:15:40.185Z,53.11
2022-11-15T06:18:08.433Z,53.33
2022-11-15T06:20:36.645Z,53.49
2022-11-15T06:23:06.949Z,53.32
2022-11-15T06:25:35.227Z,53.30
2022-11-15T06:28:03.530Z,53.25
2022-11-15T06:30:33.138Z,52.97
2022-11-15T06:33:03.443Z,52.85
2022-11-15T06:35:32.125Z,53.39
2022-11-15T06:38:06.336Z,53.18
2022-11-15T06:40:37.144Z,53.27
2022-11-15T06:43:06.692Z,53.43
2022-11-15T06:45:36.373Z,53.10
2022-11-15T06:48:04.886Z,53.22
2022-11-15T06:50:33.146Z,53.49
2022-11-15T06:53:04.931Z,53.57
2022-11-15T06:55:33.247Z,53.43
2022-11-15T06:58:01.788Z,53.29
2022-11-15T07:00:30.150Z,53.43
2022-11-15T07:03:02.322Z,53.62
2022-11-15T07:05:31.322Z,53.79
2022-11-15T07:08:00.727Z,53.86
2022-11-15T07:10:29.750Z,54.50
2022-11-15T07:12:58.971Z,54.60
2022-11-15T07:15:28.265Z,54.94
2022-11-15T07:17:56.551Z,54.97
2022-11-15T07:20:26.155Z,55.48
2022-11-15T07:23:02.958Z,55.50
2022-11-15T07:25:31.252Z,55.78
2022-11-15T07:28:00.800Z,55.68
2022-11-15T07:30:30.085Z,55.47
2022-11-15T07:32:59.360Z,55.42
2022-11-15T07:35:31.024Z,55.62
2022-11-15T07:38:01.315Z,55.69
2022-11-15T07:40:33.664Z,55.84
2022-11-15T07:43:03.384Z,55.67
2022-11-15T07:45:32.268Z,55.55
2022-11-15T07:48:00.540Z,55.62
2022-11-15T07:50:30.906Z,55.44
2022-11-15T07:53:01.377Z,55.58
2022-11-15T07:55:30.784Z,55.68
2022-11-15T07:58:04.490Z,55.46
2022-11-15T08:00:33.061Z,55.53
2022-11-15T08:03:06.124Z,55.40
2022-11-15T08:05:36.548Z,55.26
2022-11-15T08:08:05.386Z,55.02
2022-11-15T08:10:40.263Z,54.79
2022-11-15T08:13:12.510Z,54.60
2022-11-15T08:15:41.102Z,54.56
2022-11-15T08:18:13.720Z,54.43
2022-11-15T08:20:44.241Z,54.04
2022-11-15T08:23:14.343Z,53.98
2022-11-15T08:25:42.849Z,53.99
2022-11-15T08:28:12.947Z,54.10
2022-11-15T08:30:43.839Z,53.86
2022-11-15T08:33:15.045Z,53.49
2022-11-15T08:35:45.723Z,53.57
2022-11-15T08:38:14.033Z,53.19
2022-11-15T08:40:42.479Z,52.81
2022-11-15T08:43:10.791Z,52.76
2022-11-15T08:45:39.024Z,52.64
2022-11-15T08:48:07.669Z,52.34
2022-11-15T08:50:35.940Z,52.10
2022-11-15T08:53:09.454Z,51.91
2022-11-15T08:55:39.837Z,51.76
2022-11-15T08:58:08.446Z,51.59
2022-11-15T09:00:36.772Z,51.46
2022-11-15T09:03:06.780Z,51.33
2022-11-15T09:05:38.144Z,51.11
2022-11-15T09:08:25.683Z,51.16
2022-11-15T09:10:56.253Z,51.00
2022-11-15T09:13:24.981Z,50.85
2022-11-15T09:15:53.213Z,50.58
2022-11-15T09:18:23.360Z,50.32
2022-11-15T09:20:51.748Z,50.36
2022-11-15T09:23:21.496Z,50.18
2022-11-15T09:25:49.813Z,50.37
2022-11-15T09:28:18.134Z,49.93
2022-11-15T09:30:46.728Z,50.10
2022-11-15T09:33:15.384Z,50.09
2022-11-15T09:35:43.651Z,49.78
2022-11-15T09:38:12.063Z,49.67
2022-11-15T09:40:41.749Z,49.52
2022-11-15T09:43:34.996Z,49.62
2022-11-15T09:46:18.149Z,49.36
2022-11-15T09:48:55.431Z,49.05
2022-11-15T09:51:31.604Z,48.82
2022-11-15T09:57:18.042Z,48.74
2022-11-15T10:00:30.899Z,48.41
2022-11-15T10:03:09.733Z,48.61
2022-11-15T10:05:43.437Z,48.32
2022-11-15T10:08:46.085Z,48.45
2022-11-15T10:11:37.803Z,48.05
2022-11-15T10:14:16.252Z,48.10
2022-11-15T10:17:26.612Z,48.27
2022-11-15T10:20:12.582Z,47.82
2022-11-15T10:22:43.572Z,47.54
2022-11-15T10:25:22.056Z,47.26
2022-11-15T10:27:59.170Z,47.06
2022-11-15T10:30:37.188Z,46.78
2022-11-15T10:33:26.124Z,46.75
2022-11-15T10:36:23.861Z,46.62
2022-11-15T10:38:58.736Z,46.12
2022-11-15T10:41:38.602Z,46.16
2022-11-15T10:44:27.473Z,45.84
2022-11-15T10:47:30.842Z,45.76
2022-11-15T10:50:06.739Z,44.86
2022-11-15T10:52:38.215Z,44.69
2022-11-15T10:55:25.164Z,44.53
2022-11-15T10:57:56.382Z,44.00
2022-11-15T11:00:35.570Z,43.73
2022-11-15T11:03:09.221Z,43.84
2022-11-15T11:05:42.100Z,43.21
2022-11-15T11:08:25.674Z,43.50
2022-11-15T11:11:02.823Z,43.18
2022-11-15T11:13:34.145Z,43.26
2022-11-15T11:16:39.287Z,43.43
2022-11-15T11:19:36.756Z,42.87
2022-11-15T11:22:18.525Z,43.08
2022-11-15T11:24:58.600Z,43.03
2022-11-15T11:27:45.589Z,42.73
2022-11-15T11:30:20.807Z,42.89
2022-11-15T11:33:12.437Z,42.50
2022-11-15T11:35:53.936Z,42.43
2022-11-15T11:38:41.806Z,42.44
2022-11-15T11:41:22.544Z,41.89
2022-11-15T11:44:07.232Z,41.87
2022-11-15T11:46:54.619Z,42.16
2022-11-15T11:49:30.739Z,42.30
2022-11-15T11:52:07.148Z,42.27
2022-11-15T11:54:50.398Z,41.86
2022-11-15T11:57:34.567Z,42.30
2022-11-15T12:00:12.379Z,42.36
2022-11-15T12:02:44.656Z,42.55
2022-11-15T12:05:19.813Z,42.52
2022-11-15T12:07:51.903Z,42.63
2022-11-15T12:10:26.297Z,42.84
2022-11-15T12:13:04.299Z,42.84
2022-11-15T12:15:44.027Z,42.80
2022-11-15T12:18:17.706Z,43.00
2022-11-15T12:20:56.735Z,43.32
2022-11-15T12:23:30.803Z,42.97
2022-11-15T12:26:06.842Z,43.36
2022-11-15T12:28:53.159Z,43.38
2022-11-15T12:31:39.469Z,43.54
2022-11-15T12:34:32.459Z,43.44
2022-11-15T12:37:00.734Z,43.46
2022-11-15T12:40:20.582Z,43.63
2022-11-15T12:43:17.051Z,43.64
2022-11-15T12:45:47.124Z,43.81
2022-11-15T12:49:01.764Z,43.77
2022-11-15T12:52:07.991Z,43.94
2022-11-15T12:55:34.960Z,44.08
2022-11-15T12:58:30.531Z,44.15
2022-11-15T13:00:59.222Z,44.19
2022-11-15T13:03:30.398Z,44.15
2022-11-15T13:06:09.640Z,44.16
2022-11-15T13:08:48.253Z,44.27
2022-11-15T13:11:53.366Z,44.35
2022-11-15T13:14:51.941Z,44.49
2022-11-15T13:17:35.554Z,44.39
2022-11-15T13:20:24.818Z,44.28
2022-11-15T13:23:00.252Z,44.44
2022-11-15T13:25:59.820Z,44.64
2022-11-15T13:28:39.318Z,44.60
2022-11-15T13:31:28.245Z,44.44
2022-11-15T13:34:00.493Z,44.51
2022-11-15T13:36:34.008Z,44.78
2022-11-15T13:39:05.740Z,44.76
2022-11-15T13:41:36.013Z,44.79
2022-11-15T13:44:21.820Z,44.70
2022-11-15T13:46:50.092Z,44.79
2022-11-15T13:49:18.597Z,44.91
2022-11-15T13:51:50.287Z,44.80
2022-11-15T13:54:23.375Z,44.91
2022-11-15T13:56:56.858Z,44.88
2022-11-15T13:59:30.084Z,44.87
2022-11-15T14:02:03.994Z,45.07
2022-11-15T14:04:35.368Z,45.07
2022-11-15T14:07:04.929Z,45.01
2022-11-15T14:09:38.101Z,45.10
2022-11-15T14:12:33.764Z,45.08
2022-11-15T14:15:21.842Z,45.22
2022-11-15T14:17:50.600Z,45.31
2022-11-15T14:20:29.449Z,45.18
2022-11-15T14:22:59.725Z,45.34
2022-11-15T14:25:29.731Z,45.33
2022-11-15T14:28:31.763Z,45.31
2022-11-15T14:31:02.568Z,45.32
2022-11-15T14:33:33.346Z,45.32
2022-11-15T14:36:07.440Z,45.05
2022-11-15T14:38:36.550Z,45.20
2022-11-15T14:41:05.026Z,45.13
2022-11-15T14:43:33.447Z,45.13
2022-11-15T14:46:03.088Z,45.33
2022-11-15T14:48:31.924Z,45.35
2022-11-15T14:51:00.768Z,45.40
2022-11-15T14:53:29.147Z,45.46
2022-11-15T14:55:57.463Z,45.49
2022-11-15T14:58:25.706Z,45.50
2022-11-15T15:00:54.024Z,45.47
2022-11-15T15:03:23.713Z,45.49
2022-11-15T15:05:51.945Z,45.42
2022-11-15T15:08:20.348Z,45.60
2022-11-15T15:10:49.000Z,45.59
2022-11-15T15:13:22.477Z,45.62
2022-11-15T15:15:51.753Z,45.78
2022-11-15T15:18:20.941Z,45.66
2022-11-15T15:21:00.982Z,45.86
2022-11-15T15:23:31.792Z,45.86
2022-11-15T15:26:00.301Z,45.72
2022-11-15T15:28:34.039Z,45.79
2022-11-15T15:31:03.141Z,46.01
2022-11-15T15:33:31.493Z,46.09
2022-11-15T15:36:01.339Z,46.02
2022-11-15T15:38:30.170Z,46.11
2022-11-15T15:41:00.609Z,45.92
2022-11-15T15:43:28.921Z,46.22
2022-11-15T15:45:57.270Z,46.38
2022-11-15T15:48:25.643Z,46.45
2022-11-15T15:50:54.046Z,46.64
2022-11-15T15:53:23.981Z,46.57
2022-11-15T15:55:52.398Z,46.74
2022-11-15T15:58:20.879Z,46.65
2022-11-15T16:00:49.343Z,46.74
2022-11-15T16:03:17.801Z,46.73
2022-11-15T16:05:46.406Z,46.85
2022-11-15T16:08:20.812Z,46.93
2022-11-15T16:10:51.109Z,47.04
2022-11-15T16:13:19.586Z,47.09
2022-11-15T16:15:52.897Z,47.15
2022-11-15T16:18:21.595Z,47.16
2022-11-15T16:20:53.138Z,47.22
2022-11-15T16:23:24.605Z,47.11
2022-11-15T16:25:57.068Z,47.30
2022-11-15T16:28:27.606Z,47.27
2022-11-15T16:31:04.047Z,47.55
2022-11-15T16:33:33.701Z,47.24
2022-11-15T16:36:03.071Z,47.38
2022-11-15T16:38:32.385Z,47.08
2022-11-15T16:41:02.463Z,47.25
2022-11-15T16:43:30.842Z,47.15
2022-11-15T16:45:59.309Z,47.48
2022-11-15T16:48:29.853Z,47.52
2022-11-15T16:50:59.793Z,47.38
2022-11-15T16:53:29.163Z,47.53
2022-11-15T16:55:58.369Z,47.44
2022-11-15T16:58:28.216Z,47.59
2022-11-15T17:00:58.471Z,47.42
2022-11-15T17:03:27.178Z,47.32
2022-11-15T17:06:00.719Z,47.19
2022-11-15T17:08:29.202Z,47.36
2022-11-15T17:10:57.661Z,47.36
2022-11-15T17:13:27.516Z,47.30
2022-11-15T17:16:09.980Z,47.35
2022-11-15T17:18:39.434Z,47.32
2022-11-15T17:21:09.954Z,47.38
2022-11-15T17:23:38.375Z,47.68
2022-11-15T17:26:28.181Z,47.51
2022-11-15T17:28:59.278Z,47.52
2022-11-15T17:31:27.864Z,47.60
2022-11-15T17:33:56.313Z,47.59
2022-11-15T17:36:24.817Z,47.51
2022-11-15T17:38:57.954Z,47.54
2022-11-15T17:41:27.957Z,47.73
2022-11-15T17:44:00.589Z,47.84
2022-11-15T17:46:30.154Z,47.60
2022-11-15T17:48:59.331Z,47.76
2022-11-15T17:51:27.862Z,47.76
2022-11-15T17:53:57.540Z,47.58
2022-11-15T17:56:28.186Z,47.62
2022-11-15T17:58:59.900Z,47.63
2022-11-15T18:01:30.467Z,47.69
2022-11-15T18:04:02.011Z,47.59
2022-11-15T18:06:34.255Z,47.59
2022-11-15T18:09:03.457Z,47.80
2022-11-15T18:11:34.423Z,47.82
2022-11-15T18:14:07.399Z,48.02
2022-11-15T18:16:38.615Z,48.01
2022-11-15T18:19:11.413Z,48.06
2022-11-15T18:21:56.299Z,48.21
2022-11-15T18:24:25.344Z,48.27
2022-11-15T18:26:53.924Z,48.35
2022-11-15T18:29:24.555Z,48.38
2022-11-15T18:31:56.080Z,48.52
2022-11-15T18:34:25.836Z,48.86
2022-11-15T18:36:54.520Z,48.88
2022-11-15T18:39:22.960Z,49.01
2022-11-15T18:41:52.179Z,49.25
2022-11-15T18:44:20.459Z,49.20
2022-11-15T18:46:50.985Z,49.45
2022-11-15T18:49:20.253Z,49.40
2022-11-15T18:51:49.306Z,49.44
2022-11-15T18:54:18.792Z,49.39
2022-11-15T18:56:47.562Z,49.30
2022-11-15T18:59:16.831Z,49.30
2022-11-15T19:01:48.612Z,49.24
2022-11-15T19:04:20.624Z,49.06
2022-11-15T19:06:50.837Z,49.11
2022-11-15T19:09:20.567Z,49.16
2022-11-15T19:11:51.519Z,49.08
2022-11-15T19:14:24.072Z,49.11
2022-11-15T19:16:53.208Z,49.04
2022-11-15T19:19:25.411Z,49.29
2022-11-15T19:21:54.214Z,49.14
2022-11-15T19:24:22.915Z,49.28
2022-11-15T19:26:51.230Z,49.29
2022-11-15T19:29:19.611Z,49.31
2022-11-15T19:31:48.842Z,49.39
2022-11-15T19:34:17.942Z,49.31
2022-11-15T19:36:47.623Z,49.30
2022-11-15T19:39:18.503Z,49.38
2022-11-15T19:41:47.731Z,49.36
2022-11-15T19:44:16.454Z,49.42
2022-11-15T19:46:45.329Z,49.51
2022-11-15T19:49:13.947Z,49.65
2022-11-15T19:51:45.056Z,49.58
2022-11-15T19:54:16.954Z,49.73
2022-11-15T19:56:46.679Z,49.93
2022-11-15T19:59:15.278Z,50.00
2022-11-15T20:01:43.625Z,49.95
2022-11-15T20:04:11.914Z,49.94
2022-11-15T20:06:42.352Z,49.94
2022-11-15T20:09:16.594Z,50.10
2022-11-15T20:11:45.358Z,50.10
2022-11-15T20:14:13.980Z,50.23
2022-11-15T20:16:42.881Z,50.16
2022-11-15T20:19:12.503Z,50.03
2022-11-15T20:21:41.182Z,50.24
2022-11-15T20:24:10.332Z,50.34
2022-11-15T20:26:40.125Z,50.40
2022-11-15T20:29:09.936Z,50.50
2022-11-15T20:31:38.414Z,50.51
2022-11-15T20:34:07.013Z,50.46
2022-11-15T20:36:35.317Z,50.63
2022-11-15T20:39:03.719Z,50.64
2022-11-15T20:41:32.018Z,50.55
2022-11-15T20:44:03.096Z,50.71
2022-11-15T20:46:31.483Z,50.79
2022-11-15T20:48:59.938Z,51.38
2022-11-15T20:51:29.373Z,52.00
2022-11-15T20:53:57.714Z,52.14
2022-11-15T20:56:26.074Z,52.54
2022-11-15T20:58:54.860Z,52.81
2022-11-15T21:01:25.509Z,52.90
2022-11-15T21:03:54.745Z,52.88
2022-11-15T21:06:24.178Z,53.02
2022-11-15T21:09:11.656Z,52.93
2022-11-15T21:11:57.765Z,53.47
2022-11-15T21:14:26.165Z,53.84
2022-11-15T21:16:55.829Z,54.14
2022-11-15T21:19:28.982Z,54.58
2022-11-15T21:22:02.968Z,55.69
2022-11-15T21:24:31.421Z,55.40
2022-11-15T21:26:59.769Z,55.34
2022-11-15T21:29:28.659Z,54.75
2022-11-15T21:32:00.677Z,54.68
2022-11-15T21:34:31.106Z,54.45
2022-11-15T21:36:59.820Z,54.24
2022-11-15T21:39:28.188Z,53.86
2022-11-15T21:41:56.773Z,53.74
2022-11-15T21:44:25.023Z,53.55
2022-11-15T21:46:53.288Z,53.56
2022-11-15T21:49:23.421Z,53.60
2022-11-15T21:51:51.728Z,53.47
2022-11-15T21:54:19.976Z,53.52
2022-11-15T21:56:48.264Z,53.23
2022-11-15T21:59:16.474Z,53.30
2022-11-15T22:02:01.536Z,53.20
2022-11-15T22:04:31.202Z,53.24
2022-11-15T22:06:59.472Z,53.12
2022-11-15T22:09:27.763Z,53.15
2022-11-15T22:11:56.027Z,53.21
2022-11-15T22:14:24.264Z,53.24
2022-11-15T22:16:52.480Z,53.13
2022-11-15T22:19:20.909Z,53.14
2022-11-15T22:21:50.755Z,53.17
2022-11-15T22:24:19.166Z,53.10
2022-11-15T22:26:47.601Z,53.13
2022-11-15T22:29:16.021Z,53.22
2022-11-15T22:31:44.442Z,53.22
2022-11-15T22:34:12.888Z,53.30
2022-11-15T22:37:13.220Z,53.36
2022-11-15T22:39:35.097Z,53.65
2022-11-15T22:42:03.567Z,53.46
2022-11-15T22:44:32.052Z,53.51
2022-11-15T22:47:00.452Z,53.56
2022-11-15T22:49:28.969Z,53.51
2022-11-15T22:51:57.415Z,53.52
2022-11-15T22:54:25.828Z,53.69
2022-11-15T22:56:56.925Z,53.66
2022-11-15T22:59:26.174Z,53.71
2022-11-15T23:01:54.598Z,53.90
2022-11-15T23:04:23.416Z,54.07
2022-11-15T23:06:51.929Z,54.05
2022-11-15T23:09:20.381Z,54.17
2022-11-15T23:12:05.957Z,54.07
2022-11-15T23:14:35.764Z,54.22
2022-11-15T23:17:04.248Z,54.35
2022-11-15T23:19:32.713Z,54.51
2022-11-15T23:22:18.626Z,54.66
2022-11-15T23:24:47.073Z,54.50
2022-11-15T23:27:20.011Z,54.83
2022-11-15T23:30:07.136Z,54.71
2022-11-15T23:32:52.316Z,54.82
2022-11-15T23:35:21.184Z,54.91
2022-11-15T23:37:49.690Z,55.07
2022-11-15T23:40:18.856Z,55.04
2022-11-15T23:42:47.427Z,55.26
2022-11-15T23:45:18.340Z,55.29
2022-11-15T23:47:46.946Z,55.36
2022-11-15T23:50:15.541Z,55.34
2022-11-15T23:52:44.025Z,55.36
2022-11-15T23:55:12.408Z,55.41
2022-11-15T23:57:40.838Z,55.33
